createdAt,value
2019-03-10T00:00:32.334Z,59.34
2019-03-10T00:01:08.001Z,59.68
2019-03-10T00:01:43.439Z,59.49
2019-03-10T00:02:18.868Z,59.60
2019-03-10T00:02:54.320Z,59.99
2019-03-10T00:03:30.031Z,60.16
2019-03-10T00:04:05.417Z,60.00
2019-03-10T00:04:41.130Z,60.07
2019-03-10T00:05:16.787Z,60.01
2019-03-10T00:05:52.480Z,60.25
2019-03-10T00:06:27.951Z,60.32
2019-03-10T00:07:03.429Z,60.53
2019-03-10T00:07:38.834Z,60.53
2019-03-10T00:08:14.270Z,60.52
2019-03-10T00:08:49.662Z,59.72
2019-03-10T00:09:25.190Z,59.85
2019-03-10T00:10:00.670Z,59.98
2019-03-10T00:10:36.353Z,60.09
2019-03-10T00:11:11.762Z,60.16
2019-03-10T00:11:47.178Z,60.04
2019-03-10T00:12:22.887Z,60.01
2019-03-10T00:12:58.336Z,60.00
2019-03-10T00:13:34.060Z,59.79
2019-03-10T00:14:09.468Z,59.76
2019-03-10T00:14:44.969Z,59.84
2019-03-10T00:15:20.483Z,59.82
2019-03-10T00:15:55.935Z,59.99
2019-03-10T00:16:31.409Z,60.30
2019-03-10T00:17:06.907Z,59.97
2019-03-10T00:17:42.576Z,59.48
2019-03-10T00:18:17.981Z,59.30
2019-03-10T00:18:53.706Z,59.43
2019-03-10T00:19:29.423Z,59.50
2019-03-10T00:20:05.344Z,59.35
2019-03-10T00:20:40.944Z,59.37
2019-03-10T00:21:16.644Z,58.67
2019-03-10T00:21:52.113Z,58.40
2019-03-10T00:22:28.168Z,58.26
2019-03-10T00:23:03.851Z,58.05
2019-03-10T00:23:39.841Z,58.02
2019-03-10T00:24:15.544Z,57.85
2019-03-10T00:24:50.945Z,57.91
2019-03-10T00:25:26.382Z,58.00
2019-03-10T00:26:01.831Z,58.20
2019-03-10T00:26:37.510Z,58.32
2019-03-10T00:27:12.910Z,58.54
2019-03-10T00:27:48.582Z,58.57
2019-03-10T00:28:24.039Z,58.88
2019-03-10T00:28:59.841Z,58.89
2019-03-10T00:29:35.348Z,58.98
2019-03-10T00:30:10.760Z,58.89
2019-03-10T00:30:46.192Z,58.73
2019-03-10T00:31:21.575Z,58.82
2019-03-10T00:31:57.059Z,58.80
2019-03-10T00:32:32.555Z,58.68
2019-03-10T00:33:07.961Z,58.92
2019-03-10T00:33:43.598Z,58.72
2019-03-10T00:34:18.986Z,58.90
2019-03-10T00:34:55.246Z,58.88
2019-03-10T00:35:30.912Z,58.97
2019-03-10T00:36:06.615Z,59.04
2019-03-10T00:36:42.287Z,58.94
2019-03-10T00:37:17.677Z,58.73
2019-03-10T00:37:53.383Z,58.75
2019-03-10T00:38:37.408Z,58.84
2019-03-10T00:39:44.806Z,59.05
2019-03-10T00:41:02.760Z,59.18
2019-03-10T00:42:09.929Z,59.10
2019-03-10T00:43:26.079Z,59.58
2019-03-10T00:44:43.500Z,59.08
2019-03-10T00:46:04.878Z,59.58
2019-03-10T00:47:42.666Z,59.94
2019-03-10T00:48:56.274Z,60.32
2019-03-10T00:50:00.353Z,60.32
2019-03-10T00:51:07.695Z,60.34
2019-03-10T00:52:13.022Z,60.33
2019-03-10T00:52:58.682Z,60.53
2019-03-10T00:53:34.677Z,60.85
2019-03-10T00:54:10.072Z,61.04
2019-03-10T00:54:45.476Z,61.02
2019-03-10T00:55:20.906Z,61.28
2019-03-10T00:55:56.363Z,61.32
2019-03-10T00:56:31.821Z,61.44
2019-03-10T00:57:07.360Z,61.62
2019-03-10T00:57:42.756Z,61.73
2019-03-10T00:58:18.160Z,62.06
2019-03-10T00:58:53.595Z,62.03
2019-03-10T00:59:29.312Z,62.23
2019-03-10T01:00:05.638Z,62.46
2019-03-10T01:00:41.015Z,62.74
2019-03-10T01:01:16.404Z,62.81
2019-03-10T01:01:51.810Z,62.88
2019-03-10T01:02:27.263Z,63.03
2019-03-10T01:03:02.841Z,63.10
2019-03-10T01:03:38.241Z,63.17
2019-03-10T01:04:13.880Z,62.77
2019-03-10T01:04:49.282Z,62.96
2019-03-10T01:05:25.058Z,63.08
2019-03-10T01:06:00.754Z,62.88
2019-03-10T01:06:36.442Z,63.12
2019-03-10T01:07:11.972Z,63.35
2019-03-10T01:07:47.678Z,63.53
2019-03-10T01:08:23.110Z,63.65
2019-03-10T01:08:58.544Z,63.74
2019-03-10T01:09:34.421Z,63.61
2019-03-10T01:10:11.307Z,63.69
2019-03-10T01:10:46.751Z,63.38
2019-03-10T01:11:22.417Z,63.38
2019-03-10T01:11:58.118Z,62.99
2019-03-10T01:12:33.828Z,63.15
2019-03-10T01:13:09.177Z,63.55
2019-03-10T01:13:44.570Z,63.72
2019-03-10T01:14:20.226Z,63.52
2019-03-10T01:14:55.668Z,63.56
2019-03-10T01:15:31.783Z,63.02
2019-03-10T01:16:07.276Z,63.17
2019-03-10T01:16:43.359Z,63.32
2019-03-10T01:17:19.566Z,63.32
2019-03-10T01:17:56.296Z,63.11
2019-03-10T01:18:33.588Z,63.15
2019-03-10T01:19:09.237Z,63.14
2019-03-10T01:19:45.033Z,63.23
2019-03-10T01:20:20.449Z,63.20
2019-03-10T01:20:58.074Z,63.02
2019-03-10T01:21:34.730Z,63.09
2019-03-10T01:22:10.145Z,63.00
2019-03-10T01:22:45.606Z,62.66
2019-03-10T01:23:21.000Z,62.71
2019-03-10T01:23:56.414Z,62.59
2019-03-10T01:24:31.855Z,62.54
2019-03-10T01:25:07.544Z,62.42
2019-03-10T01:25:43.208Z,62.26
2019-03-10T01:26:18.974Z,62.29
2019-03-10T01:26:54.725Z,62.45
2019-03-10T01:27:30.185Z,62.47
2019-03-10T01:28:05.854Z,62.52
2019-03-10T01:28:41.287Z,62.69
2019-03-10T01:29:16.917Z,62.76
2019-03-10T01:29:52.532Z,62.75
2019-03-10T01:30:32.759Z,62.79
2019-03-10T01:31:45.952Z,62.57
2019-03-10T01:32:50.958Z,62.52
2019-03-10T01:33:50.636Z,62.63
2019-03-10T01:35:06.849Z,62.33
2019-03-10T01:35:42.994Z,62.58
2019-03-10T01:36:17.015Z,62.49
2019-03-10T01:36:52.404Z,62.10
2019-03-10T01:37:27.840Z,62.05
2019-03-10T01:38:03.247Z,62.49
2019-03-10T01:38:38.615Z,62.51
2019-03-10T01:39:14.000Z,62.39
2019-03-10T01:39:49.951Z,62.55
2019-03-10T01:40:25.628Z,62.49
2019-03-10T01:41:01.295Z,62.59
2019-03-10T01:41:36.946Z,62.80
2019-03-10T01:42:12.417Z,62.98
2019-03-10T01:42:48.074Z,62.70
2019-03-10T01:43:23.582Z,62.68
2019-03-10T01:43:59.147Z,62.36
2019-03-10T01:44:34.548Z,62.22
2019-03-10T01:45:11.217Z,62.09
2019-03-10T01:45:46.608Z,62.11
2019-03-10T01:46:21.994Z,62.39
2019-03-10T01:46:57.463Z,62.59
2019-03-10T01:47:32.895Z,62.33
2019-03-10T01:48:08.556Z,62.45
2019-03-10T01:48:43.946Z,62.62
2019-03-10T01:49:19.342Z,62.77
2019-03-10T01:49:54.770Z,62.75
2019-03-10T01:50:30.336Z,62.68
2019-03-10T01:51:06.258Z,62.81
2019-03-10T01:51:41.670Z,62.82
2019-03-10T01:52:17.313Z,62.87
2019-03-10T01:52:52.791Z,62.98
2019-03-10T01:53:28.290Z,63.08
2019-03-10T01:54:03.739Z,63.11
2019-03-10T01:54:39.184Z,63.07
2019-03-10T01:55:14.674Z,63.28
2019-03-10T01:55:50.056Z,63.56
2019-03-10T01:56:26.065Z,63.28
2019-03-10T01:57:01.498Z,63.18
2019-03-10T01:57:36.916Z,63.28
2019-03-10T01:58:12.565Z,63.45
2019-03-10T01:58:47.975Z,63.44
2019-03-10T01:59:23.356Z,63.63
2019-03-10T01:59:58.798Z,63.92
2019-03-10T02:00:34.197Z,63.77
2019-03-10T02:01:09.930Z,63.11
2019-03-10T02:01:45.524Z,63.31
2019-03-10T02:02:25.779Z,63.25
2019-03-10T02:02:58.125Z,63.37
2019-03-10T02:03:33.784Z,63.48
2019-03-10T02:04:09.759Z,63.68
2019-03-10T02:04:45.153Z,63.72
2019-03-10T02:05:21.085Z,63.83
2019-03-10T02:05:56.824Z,63.76
2019-03-10T02:06:32.237Z,63.36
2019-03-10T02:07:07.616Z,63.54
2019-03-10T02:07:43.048Z,63.28
2019-03-10T02:08:18.680Z,63.56
2019-03-10T02:08:54.115Z,63.53
2019-03-10T02:09:29.530Z,63.90
2019-03-10T02:10:05.751Z,64.03
2019-03-10T02:10:41.378Z,64.09
2019-03-10T02:11:17.019Z,64.22
2019-03-10T02:11:52.692Z,64.35
2019-03-10T02:12:28.093Z,64.39
2019-03-10T02:13:03.763Z,64.20
2019-03-10T02:13:39.159Z,64.17
2019-03-10T02:14:14.854Z,63.46
2019-03-10T02:14:50.243Z,63.81
2019-03-10T02:15:25.717Z,63.87
2019-03-10T02:16:01.372Z,63.97
2019-03-10T02:16:36.757Z,63.66
2019-03-10T02:17:12.148Z,63.60
2019-03-10T02:17:47.826Z,63.39
2019-03-10T02:18:23.216Z,63.00
2019-03-10T02:18:58.992Z,62.92
2019-03-10T02:19:34.382Z,63.33
2019-03-10T02:20:12.086Z,63.49
2019-03-10T02:20:47.559Z,63.75
2019-03-10T02:21:23.264Z,63.72
2019-03-10T02:21:58.742Z,63.53
2019-03-10T02:22:34.171Z,63.37
2019-03-10T02:23:09.570Z,63.46
2019-03-10T02:23:45.206Z,63.69
2019-03-10T02:24:24.045Z,63.42
2019-03-10T02:24:58.265Z,63.49
2019-03-10T02:25:33.664Z,63.25
2019-03-10T02:26:09.056Z,62.78
2019-03-10T02:26:44.465Z,62.45
2019-03-10T02:27:20.169Z,62.51
2019-03-10T02:27:55.614Z,62.65
2019-03-10T02:28:30.990Z,62.72
2019-03-10T02:29:06.631Z,62.74
2019-03-10T02:29:42.029Z,62.96
2019-03-10T02:30:18.654Z,63.00
2019-03-10T02:30:54.043Z,62.97
2019-03-10T02:31:29.767Z,63.15
2019-03-10T02:32:05.252Z,63.33
2019-03-10T02:32:40.885Z,63.45
2019-03-10T02:33:16.276Z,63.28
2019-03-10T02:33:51.924Z,63.64
2019-03-10T02:34:27.402Z,63.84
2019-03-10T02:35:02.874Z,64.02
2019-03-10T02:35:38.328Z,64.18
2019-03-10T02:36:13.681Z,64.26
2019-03-10T02:36:49.453Z,64.47
2019-03-10T02:37:25.138Z,64.72
2019-03-10T02:38:00.599Z,64.75
2019-03-10T02:38:35.989Z,64.77
2019-03-10T02:39:11.726Z,64.92
2019-03-10T02:39:47.109Z,65.03
2019-03-10T02:40:22.774Z,65.20
2019-03-10T02:40:58.222Z,65.20
2019-03-10T02:41:33.666Z,65.10
2019-03-10T02:42:09.312Z,64.83
2019-03-10T02:42:44.763Z,64.85
2019-03-10T02:43:20.147Z,64.96
2019-03-10T02:43:55.547Z,65.17
2019-03-10T02:44:30.976Z,65.06
2019-03-10T02:45:06.655Z,65.11
2019-03-10T02:45:42.069Z,65.26
2019-03-10T02:46:17.719Z,65.44
2019-03-10T02:46:53.131Z,65.38
2019-03-10T02:47:28.573Z,65.65
2019-03-10T02:48:04.269Z,65.73
2019-03-10T02:48:39.695Z,65.86
2019-03-10T02:49:15.341Z,65.90
2019-03-10T02:49:50.993Z,65.99
2019-03-10T02:51:01.067Z,65.90
2019-03-10T02:51:36.725Z,65.90
2019-03-10T02:52:12.131Z,66.28
2019-03-10T02:52:47.535Z,66.47
2019-03-10T02:53:23.218Z,66.85
2019-03-10T02:53:58.625Z,66.85
2019-03-10T02:54:34.058Z,66.64
2019-03-10T02:55:09.557Z,66.83
2019-03-10T02:55:45.187Z,66.62
2019-03-10T02:56:20.579Z,66.76
2019-03-10T02:56:56.053Z,66.76
2019-03-10T02:57:31.507Z,66.70
2019-03-10T02:58:07.260Z,66.77
2019-03-10T02:58:42.632Z,66.83
2019-03-10T02:59:18.271Z,66.77
2019-03-10T02:59:53.699Z,66.96
2019-03-10T03:00:29.102Z,66.97
2019-03-10T03:01:04.563Z,66.92
2019-03-10T03:01:40.150Z,66.95
2019-03-10T03:02:15.538Z,66.92
2019-03-10T03:02:50.937Z,66.97
2019-03-10T03:03:26.451Z,66.91
2019-03-10T03:04:01.842Z,67.03
2019-03-10T03:04:37.480Z,66.96
2019-03-10T03:05:12.888Z,66.96
2019-03-10T03:05:48.285Z,66.83
2019-03-10T03:06:23.668Z,66.89
2019-03-10T03:06:59.146Z,67.03
2019-03-10T03:07:34.566Z,67.07
2019-03-10T03:08:09.974Z,67.12
2019-03-10T03:08:45.634Z,67.21
2019-03-10T03:09:21.014Z,67.30
2019-03-10T03:09:56.797Z,67.42
2019-03-10T03:10:32.834Z,67.48
2019-03-10T03:11:08.216Z,67.52
2019-03-10T03:11:43.887Z,67.31
2019-03-10T03:12:19.549Z,67.30
2019-03-10T03:12:55.217Z,67.30
2019-03-10T03:13:30.781Z,67.30
2019-03-10T03:14:06.184Z,67.09
2019-03-10T03:14:41.555Z,67.22
2019-03-10T03:15:16.949Z,67.32
2019-03-10T03:15:52.407Z,67.42
2019-03-10T03:16:28.413Z,67.36
2019-03-10T03:17:03.832Z,67.24
2019-03-10T03:17:39.222Z,66.91
2019-03-10T03:18:14.640Z,67.20
2019-03-10T03:18:50.499Z,67.28
2019-03-10T03:19:25.952Z,67.33
2019-03-10T03:20:01.449Z,67.34
2019-03-10T03:20:36.943Z,67.57
2019-03-10T03:21:12.619Z,67.84
2019-03-10T03:21:48.281Z,67.84
2019-03-10T03:22:23.693Z,67.77
2019-03-10T03:22:59.126Z,67.87
2019-03-10T03:23:34.811Z,67.93
2019-03-10T03:24:10.229Z,67.96
2019-03-10T03:24:45.641Z,68.11
2019-03-10T03:25:21.294Z,67.99
2019-03-10T03:25:57.308Z,68.14
2019-03-10T03:26:32.748Z,68.20
2019-03-10T03:27:08.121Z,68.01
2019-03-10T03:27:43.503Z,67.76
2019-03-10T03:28:18.909Z,67.71
2019-03-10T03:28:54.310Z,67.74
2019-03-10T03:29:30.086Z,67.87
2019-03-10T03:30:06.291Z,67.96
2019-03-10T03:30:41.687Z,67.91
2019-03-10T03:31:17.424Z,68.06
2019-03-10T03:31:52.919Z,68.19
2019-03-10T03:32:28.634Z,68.35
2019-03-10T03:33:04.045Z,68.36
2019-03-10T03:33:39.603Z,68.24
2019-03-10T03:34:15.013Z,68.19
2019-03-10T03:34:50.407Z,68.12
2019-03-10T03:35:49.238Z,68.27
2019-03-10T03:36:27.876Z,68.30
2019-03-10T03:37:03.563Z,67.75
2019-03-10T03:37:39.210Z,67.98
2019-03-10T03:38:14.739Z,68.21
2019-03-10T03:38:59.870Z,68.27
2019-03-10T03:39:41.743Z,68.37
2019-03-10T03:40:17.413Z,68.29
2019-03-10T03:40:59.203Z,68.17
2019-03-10T03:41:34.835Z,68.24
2019-03-10T03:42:10.216Z,68.11
2019-03-10T03:42:45.601Z,68.16
2019-03-10T03:43:21.020Z,68.29
2019-03-10T03:43:56.456Z,68.23
2019-03-10T03:44:32.288Z,68.17
2019-03-10T03:45:07.696Z,68.36
2019-03-10T03:45:43.092Z,68.45
2019-03-10T03:46:18.746Z,68.60
2019-03-10T03:46:54.157Z,68.64
2019-03-10T03:47:29.877Z,68.44
2019-03-10T03:48:05.355Z,68.62
2019-03-10T03:48:40.765Z,68.67
2019-03-10T03:49:16.177Z,68.70
2019-03-10T03:49:52.435Z,68.57
2019-03-10T03:50:28.008Z,68.36
2019-03-10T03:51:03.401Z,68.47
2019-03-10T03:51:38.792Z,68.40
2019-03-10T03:52:14.187Z,68.82
2019-03-10T03:52:49.569Z,68.27
2019-03-10T03:53:25.139Z,68.14
2019-03-10T03:54:01.196Z,68.19
2019-03-10T03:54:36.556Z,68.32
2019-03-10T03:55:12.215Z,68.52
2019-03-10T03:55:47.707Z,68.81
2019-03-10T03:56:23.143Z,68.77
2019-03-10T03:56:58.604Z,68.69
2019-03-10T03:57:33.988Z,69.08
2019-03-10T03:58:09.382Z,69.41
2019-03-10T03:58:44.798Z,69.64
2019-03-10T03:59:20.304Z,69.35
2019-03-10T03:59:55.741Z,69.54
2019-03-10T04:00:31.131Z,69.50
2019-03-10T04:01:12.817Z,69.94
2019-03-10T04:01:51.715Z,69.95
2019-03-10T04:02:44.114Z,69.96
2019-03-10T04:03:19.497Z,69.80
2019-03-10T04:03:55.359Z,69.81
2019-03-10T04:04:30.809Z,70.22
2019-03-10T04:05:06.475Z,70.54
2019-03-10T04:05:42.125Z,70.65
2019-03-10T04:06:17.513Z,70.61
2019-03-10T04:06:52.973Z,71.02
2019-03-10T04:07:28.417Z,71.21
2019-03-10T04:08:03.819Z,71.69
2019-03-10T04:08:39.205Z,71.48
2019-03-10T04:09:14.741Z,71.33
2019-03-10T04:09:50.378Z,71.15
2019-03-10T04:10:25.794Z,70.99
2019-03-10T04:11:01.530Z,71.37
2019-03-10T04:11:37.221Z,71.38
2019-03-10T04:12:13.205Z,71.84
2019-03-10T04:12:49.058Z,71.73
2019-03-10T04:13:24.707Z,71.71
2019-03-10T04:14:00.097Z,71.84
2019-03-10T04:14:35.532Z,72.10
2019-03-10T04:15:10.919Z,72.40
2019-03-10T04:15:46.646Z,72.43
2019-03-10T04:16:22.118Z,72.20
2019-03-10T04:16:57.540Z,73.29
2019-03-10T04:17:32.946Z,73.66
2019-03-10T04:18:08.335Z,73.85
2019-03-10T04:18:43.715Z,74.28
2019-03-10T04:19:19.523Z,74.28
2019-03-10T04:19:54.936Z,74.44
2019-03-10T04:20:30.431Z,74.83
2019-03-10T04:21:05.796Z,74.65
2019-03-10T04:21:41.189Z,74.62
2019-03-10T04:22:16.839Z,75.00
2019-03-10T04:22:52.231Z,75.32
2019-03-10T04:23:27.958Z,75.49
2019-03-10T04:24:03.606Z,75.11
2019-03-10T04:24:39.010Z,74.94
2019-03-10T04:25:14.383Z,75.02
2019-03-10T04:25:50.055Z,75.91
2019-03-10T04:26:28.560Z,76.13
2019-03-10T04:27:03.949Z,75.46
2019-03-10T04:27:39.655Z,75.02
2019-03-10T04:28:15.008Z,75.11
2019-03-10T04:28:50.749Z,75.02
2019-03-10T04:29:26.175Z,75.24
2019-03-10T04:30:01.836Z,75.59
2019-03-10T04:30:37.501Z,75.29
2019-03-10T04:31:13.130Z,75.48
2019-03-10T04:31:48.506Z,75.58
2019-03-10T04:32:23.888Z,75.65
2019-03-10T04:32:59.585Z,75.96
2019-03-10T04:33:35.217Z,76.45
2019-03-10T04:34:10.604Z,75.97
2019-03-10T04:34:46.252Z,75.97
2019-03-10T04:35:21.654Z,76.20
2019-03-10T04:35:57.369Z,75.61
2019-03-10T04:36:33.041Z,76.04
2019-03-10T04:37:08.419Z,76.58
2019-03-10T04:37:44.057Z,76.97
2019-03-10T04:38:19.704Z,77.32
2019-03-10T04:38:55.386Z,77.61
2019-03-10T04:39:30.821Z,77.14
2019-03-10T04:40:06.263Z,77.17
2019-03-10T04:40:41.655Z,77.80
2019-03-10T04:41:17.360Z,78.22
2019-03-10T04:41:52.753Z,78.22
2019-03-10T04:42:28.173Z,79.12
2019-03-10T04:43:03.680Z,79.12
2019-03-10T04:43:39.075Z,78.61
2019-03-10T04:44:14.792Z,78.59
2019-03-10T04:44:50.576Z,78.48
2019-03-10T04:45:26.026Z,78.26
2019-03-10T04:46:01.665Z,78.34
2019-03-10T04:46:37.048Z,78.15
2019-03-10T04:47:12.433Z,77.82
2019-03-10T04:47:47.811Z,78.22
2019-03-10T04:48:23.195Z,78.22
2019-03-10T04:48:58.632Z,78.15
2019-03-10T04:49:34.146Z,78.11
2019-03-10T04:50:12.663Z,78.47
2019-03-10T04:50:48.322Z,78.76
2019-03-10T04:51:24.223Z,79.05
2019-03-10T04:51:59.671Z,79.00
2019-03-10T04:52:35.346Z,79.22
2019-03-10T04:53:11.003Z,79.28
2019-03-10T04:53:46.388Z,78.95
2019-03-10T04:54:39.378Z,78.55
2019-03-10T04:55:39.645Z,78.17
2019-03-10T04:56:34.502Z,78.49
2019-03-10T04:57:14.519Z,78.49
2019-03-10T04:58:01.719Z,78.17
2019-03-10T04:58:40.990Z,77.96
2019-03-10T04:59:16.633Z,77.96
2019-03-10T04:59:52.420Z,78.72
2019-03-10T05:00:28.500Z,79.26
2019-03-10T05:01:03.919Z,79.39
2019-03-10T05:01:39.336Z,79.63
2019-03-10T05:02:14.964Z,79.86
2019-03-10T05:02:50.700Z,80.03
2019-03-10T05:03:26.070Z,80.36
2019-03-10T05:04:01.749Z,80.48
2019-03-10T05:04:37.133Z,80.48
2019-03-10T05:05:12.776Z,80.50
2019-03-10T05:05:48.141Z,81.05
2019-03-10T05:06:23.715Z,81.05
2019-03-10T05:06:59.185Z,80.96
2019-03-10T05:07:34.591Z,80.96
2019-03-10T05:08:09.977Z,81.24
2019-03-10T05:08:45.434Z,80.89
2019-03-10T05:09:21.054Z,80.89
2019-03-10T05:09:56.542Z,80.82
2019-03-10T05:10:32.017Z,81.43
2019-03-10T05:11:07.397Z,81.43
2019-03-10T05:11:42.884Z,81.40
2019-03-10T05:12:18.261Z,81.59
2019-03-10T05:12:53.672Z,81.81
2019-03-10T05:13:29.084Z,81.75
2019-03-10T05:14:05.131Z,81.69
2019-03-10T05:14:40.882Z,81.69
2019-03-10T05:15:16.257Z,81.98
2019-03-10T05:15:51.907Z,82.12
2019-03-10T05:16:27.588Z,82.12
2019-03-10T05:17:03.041Z,82.26
2019-03-10T05:17:38.699Z,82.14
2019-03-10T05:18:14.177Z,82.04
2019-03-10T05:18:49.566Z,82.04
2019-03-10T05:19:25.251Z,82.24
2019-03-10T05:20:00.933Z,82.41
2019-03-10T05:20:36.413Z,82.41
2019-03-10T05:21:11.807Z,82.48
2019-03-10T05:21:47.221Z,82.48
2019-03-10T05:22:22.567Z,82.29
2019-03-10T05:23:33.649Z,82.40
2019-03-10T05:24:12.645Z,82.63
2019-03-10T05:24:48.036Z,82.70
2019-03-10T05:25:23.450Z,82.71
2019-03-10T05:25:59.612Z,82.56
2019-03-10T05:26:35.509Z,82.56
2019-03-10T05:27:10.880Z,82.63
2019-03-10T05:27:46.520Z,82.67
2019-03-10T05:28:21.925Z,82.43
2019-03-10T05:28:57.644Z,82.82
2019-03-10T05:29:33.038Z,82.55
2019-03-10T05:30:10.480Z,82.55
2019-03-10T05:30:46.465Z,82.83
2019-03-10T05:31:21.839Z,82.83
2019-03-10T05:31:57.393Z,83.19
2019-03-10T05:32:32.779Z,83.19
2019-03-10T05:33:08.410Z,83.73
2019-03-10T05:33:44.054Z,83.76
2019-03-10T05:34:19.694Z,83.65
2019-03-10T05:34:55.397Z,83.58
2019-03-10T05:35:31.072Z,83.58
2019-03-10T05:36:06.459Z,83.23
2019-03-10T05:36:42.387Z,83.29
2019-03-10T05:37:17.770Z,83.92
2019-03-10T05:37:53.145Z,83.92
2019-03-10T05:38:28.868Z,83.71
2019-03-10T05:39:05.402Z,83.67
2019-03-10T05:39:41.055Z,83.62
2019-03-10T05:40:16.716Z,83.57
2019-03-10T05:40:52.079Z,83.91
2019-03-10T05:41:27.511Z,83.91
2019-03-10T05:42:02.919Z,83.67
2019-03-10T05:42:38.894Z,83.48
2019-03-10T05:43:14.619Z,83.48
2019-03-10T05:43:50.256Z,83.59
2019-03-10T05:44:25.924Z,83.62
2019-03-10T05:45:01.621Z,83.62
2019-03-10T05:45:36.997Z,83.36
2019-03-10T05:46:12.635Z,83.92
2019-03-10T05:46:48.272Z,84.04
2019-03-10T05:47:23.684Z,84.04
2019-03-10T05:47:59.076Z,83.85
2019-03-10T05:48:34.732Z,83.83
2019-03-10T05:49:10.391Z,83.78
2019-03-10T05:49:45.760Z,83.57
2019-03-10T05:50:21.153Z,83.50
2019-03-10T05:50:56.564Z,83.50
2019-03-10T05:51:31.965Z,83.46
2019-03-10T05:52:07.732Z,83.32
2019-03-10T05:52:43.109Z,83.16
2019-03-10T05:53:18.495Z,83.11
2019-03-10T05:53:53.860Z,82.63
2019-03-10T05:54:29.283Z,82.93
2019-03-10T05:55:04.975Z,82.93
2019-03-10T05:55:40.342Z,83.13
2019-03-10T05:56:15.980Z,83.26
2019-03-10T05:56:51.372Z,82.91
2019-03-10T05:57:26.761Z,83.09
2019-03-10T05:58:02.163Z,83.09
2019-03-10T05:58:37.846Z,82.70
2019-03-10T05:59:13.214Z,82.46
2019-03-10T05:59:48.585Z,82.79
2019-03-10T06:00:24.018Z,82.78
2019-03-10T06:00:59.424Z,82.78
2019-03-10T06:01:35.130Z,82.70
2019-03-10T06:02:10.757Z,82.72
2019-03-10T06:02:46.148Z,82.72
2019-03-10T06:03:21.800Z,83.04
2019-03-10T06:03:57.185Z,83.04
2019-03-10T06:04:32.830Z,82.93
2019-03-10T06:05:08.496Z,82.93
2019-03-10T06:05:44.185Z,83.03
2019-03-10T06:06:19.799Z,82.91
2019-03-10T06:06:55.464Z,82.84
2019-03-10T06:07:31.119Z,82.65
2019-03-10T06:08:06.486Z,82.41
2019-03-10T06:08:42.111Z,82.98
2019-03-10T06:09:17.480Z,82.98
2019-03-10T06:09:52.852Z,82.68
2019-03-10T06:10:28.586Z,82.84
2019-03-10T06:11:04.304Z,82.82
2019-03-10T06:11:39.941Z,82.81
2019-03-10T06:12:15.715Z,83.12
2019-03-10T06:12:51.659Z,82.93
2019-03-10T06:13:27.042Z,82.80
2019-03-10T06:14:03.005Z,82.80
2019-03-10T06:14:38.379Z,82.38
2019-03-10T06:15:13.799Z,82.33
2019-03-10T06:15:49.194Z,82.48
2019-03-10T06:16:24.642Z,82.92
2019-03-10T06:17:00.079Z,82.92
2019-03-10T06:17:35.818Z,82.47
2019-03-10T06:18:13.863Z,82.60
2019-03-10T06:18:48.295Z,82.60
2019-03-10T06:19:23.988Z,82.57
2019-03-10T06:19:59.462Z,82.92
2019-03-10T06:20:34.951Z,82.98
2019-03-10T06:21:10.321Z,83.12
2019-03-10T06:21:45.695Z,83.02
2019-03-10T06:22:21.062Z,83.50
2019-03-10T06:22:56.512Z,83.50
2019-03-10T06:23:32.021Z,83.22
2019-03-10T06:24:07.396Z,83.25
2019-03-10T06:24:42.783Z,83.16
2019-03-10T06:25:18.458Z,83.15
2019-03-10T06:25:53.828Z,83.41
2019-03-10T06:26:29.486Z,83.18
2019-03-10T06:27:04.982Z,83.18
2019-03-10T06:27:40.474Z,83.38
2019-03-10T06:28:16.090Z,83.38
2019-03-10T06:28:51.744Z,83.43
2019-03-10T06:29:27.152Z,83.34
2019-03-10T06:30:02.598Z,83.34
2019-03-10T06:30:38.245Z,83.48
2019-03-10T06:31:13.624Z,83.14
2019-03-10T06:31:49.297Z,83.14
2019-03-10T06:32:24.755Z,83.08
2019-03-10T06:33:00.178Z,83.18
2019-03-10T06:33:35.571Z,83.18
2019-03-10T06:34:10.945Z,83.32
2019-03-10T06:34:46.665Z,82.99
2019-03-10T06:35:22.074Z,82.99
2019-03-10T06:35:57.598Z,83.23
2019-03-10T06:36:33.209Z,82.95
2019-03-10T06:37:08.589Z,82.95
2019-03-10T06:37:44.317Z,83.18
2019-03-10T06:38:19.941Z,82.46
2019-03-10T06:38:55.729Z,82.57
2019-03-10T06:39:31.555Z,82.93
2019-03-10T06:40:07.444Z,82.93
2019-03-10T06:40:42.889Z,82.77
2019-03-10T06:41:18.258Z,82.77
2019-03-10T06:41:53.927Z,82.68
2019-03-10T06:42:29.333Z,82.69
2019-03-10T06:43:04.725Z,82.69
2019-03-10T06:43:40.095Z,82.73
2019-03-10T06:44:15.490Z,82.95
2019-03-10T06:44:50.883Z,82.95
2019-03-10T06:45:26.321Z,82.58
2019-03-10T06:46:01.830Z,82.89
2019-03-10T06:46:37.290Z,82.44
2019-03-10T06:47:12.678Z,82.44
2019-03-10T06:47:48.156Z,82.50
2019-03-10T06:48:23.863Z,82.77
2019-03-10T06:48:59.566Z,82.77
2019-03-10T06:49:34.977Z,82.34
2019-03-10T06:50:12.456Z,82.46
2019-03-10T06:50:47.904Z,82.50
2019-03-10T06:51:23.545Z,82.50
2019-03-10T06:51:59.010Z,82.37
2019-03-10T06:52:34.676Z,82.25
2019-03-10T06:53:10.590Z,82.26
2019-03-10T06:53:45.976Z,82.27
2019-03-10T06:54:21.357Z,82.40
2019-03-10T06:54:56.849Z,82.47
2019-03-10T06:55:32.300Z,82.46
2019-03-10T06:56:07.994Z,82.46
2019-03-10T06:56:43.469Z,82.35
2019-03-10T06:57:18.850Z,82.07
2019-03-10T06:57:54.245Z,82.44
2019-03-10T06:58:29.913Z,82.27
2019-03-10T06:59:05.628Z,82.27
2019-03-10T06:59:41.317Z,82.82
2019-03-10T07:00:17.689Z,82.50
2019-03-10T07:00:53.187Z,82.50
2019-03-10T07:01:29.229Z,82.83
2019-03-10T07:02:05.031Z,83.22
2019-03-10T07:02:40.400Z,83.22
2019-03-10T07:03:16.052Z,83.04
2019-03-10T07:03:51.853Z,83.10
2019-03-10T07:04:27.304Z,83.33
2019-03-10T07:05:02.766Z,83.45
2019-03-10T07:05:38.129Z,83.54
2019-03-10T07:06:13.537Z,83.65
2019-03-10T07:06:48.997Z,83.56
2019-03-10T07:07:24.382Z,83.67
2019-03-10T07:07:59.877Z,83.73
2019-03-10T07:08:35.248Z,83.75
2019-03-10T07:09:10.608Z,83.68
2019-03-10T07:09:45.990Z,83.64
2019-03-10T07:10:21.384Z,83.69
2019-03-10T07:10:56.908Z,83.72
2019-03-10T07:11:32.392Z,83.60
2019-03-10T07:12:08.049Z,83.60
2019-03-10T07:12:43.432Z,83.77
2019-03-10T07:13:19.080Z,83.67
2019-03-10T07:13:54.566Z,83.36
2019-03-10T07:14:29.976Z,83.27
2019-03-10T07:15:05.620Z,83.19
2019-03-10T07:15:41.247Z,83.15
2019-03-10T07:16:16.662Z,83.10
2019-03-10T07:16:52.571Z,83.02
2019-03-10T07:17:28.312Z,83.00
2019-03-10T07:18:03.762Z,83.06
2019-03-10T07:18:39.184Z,83.15
2019-03-10T07:19:14.640Z,83.27
2019-03-10T07:19:50.265Z,83.33
2019-03-10T07:20:25.916Z,83.30
2019-03-10T07:21:01.672Z,83.26
2019-03-10T07:21:37.050Z,83.44
2019-03-10T07:22:12.679Z,83.50
2019-03-10T07:22:48.059Z,83.67
2019-03-10T07:23:23.726Z,83.66
2019-03-10T07:23:59.237Z,83.72
2019-03-10T07:24:34.908Z,84.18
2019-03-10T07:25:10.597Z,84.18
2019-03-10T07:25:45.961Z,84.42
2019-03-10T07:26:21.347Z,84.42
2019-03-10T07:26:56.876Z,83.95
2019-03-10T07:27:52.899Z,83.95
2019-03-10T07:28:34.057Z,84.03
2019-03-10T07:29:14.870Z,84.03
2019-03-10T07:30:00.041Z,84.11
2019-03-10T07:30:54.430Z,84.70
2019-03-10T07:31:42.130Z,84.70
2019-03-10T07:32:42.620Z,84.48
2019-03-10T07:33:40.265Z,84.58
2019-03-10T07:34:34.865Z,83.84
2019-03-10T07:35:28.239Z,83.50
2019-03-10T07:36:14.183Z,83.82
2019-03-10T07:37:08.774Z,83.82
2019-03-10T07:38:06.002Z,84.07
2019-03-10T07:38:48.159Z,84.08
2019-03-10T07:39:38.313Z,84.32
2019-03-10T07:40:32.680Z,84.32
2019-03-10T07:41:27.722Z,83.86
2019-03-10T07:42:13.045Z,83.79
2019-03-10T07:42:54.105Z,83.69
2019-03-10T07:43:36.939Z,83.89
2019-03-10T07:44:31.311Z,83.66
2019-03-10T07:45:14.631Z,83.66
2019-03-10T07:46:18.159Z,83.89
2019-03-10T07:47:01.333Z,83.89
2019-03-10T07:47:44.281Z,83.69
2019-03-10T07:48:38.626Z,83.50
2019-03-10T07:49:36.158Z,83.31
2019-03-10T07:50:30.512Z,83.31
2019-03-10T07:51:24.085Z,83.06
2019-03-10T07:52:21.286Z,83.12
2019-03-10T07:53:14.127Z,83.44
2019-03-10T07:54:23.696Z,83.49
2019-03-10T07:55:16.534Z,83.49
2019-03-10T07:55:59.940Z,83.36
2019-03-10T07:57:03.639Z,83.47
2019-03-10T07:58:00.817Z,83.38
2019-03-10T07:59:10.966Z,83.27
2019-03-10T08:00:11.874Z,83.09
2019-03-10T08:01:21.316Z,83.08
2019-03-10T08:02:07.458Z,82.97
2019-03-10T08:03:07.717Z,83.11
2019-03-10T08:04:00.918Z,83.08